Time;durP1;ratioP1;P1;durP2;ratioP2;P2;SDS_P1;SDS_P2;PMS_P1;PMS_P2;Temp;Humidity;BMP_temperature;BMP_pressure;BME280_temperature;BME280_humidity;BME280_pressure;Samples;Min_cycle;Max_cycle;Signal;HPM_P1;HPM_P2
2022/03/27 00:00:48;;;;;;;2.17;2.08;;;12.10;99.90;;;;;;5185192;28;20036;-71
2022/03/27 00:03:21;;;;;;;2.03;1.92;;;12.20;99.90;;;;;;5184696;28;20380;-71
2022/03/27 00:05:56;;;;;;;2.03;1.92;;;12.20;99.90;;;;;;5178537;28;20264;-72
2022/03/27 00:08:30;;;;;;;3.13;2.03;;;12.20;99.90;;;;;;5187863;28;20080;-71
2022/03/27 00:13:55;;;;;;;1.58;1.52;;;12.20;99.90;;;;;;5199470;28;20354;-71
2022/03/27 00:16:31;;;;;;;2.33;2.22;;;12.00;99.90;;;;;;5198897;28;20467;-72
2022/03/27 00:19:05;;;;;;;2.03;1.92;;;12.10;99.90;;;;;;5199319;28;20029;-71
2022/03/27 00:21:38;;;;;;;1.38;1.38;;;12.00;99.90;;;;;;5208840;28;20047;-70
2022/03/27 00:24:10;;;;;;;2.97;2.78;;;11.90;99.90;;;;;;5199137;28;20046;-71
2022/03/27 00:26:47;;;;;;;1.30;1.30;;;11.80;99.90;;;;;;5191544;28;20262;-72
2022/03/27 00:29:21;;;;;;;1.55;1.55;;;11.80;99.90;;;;;;5205729;28;20373;-71
2022/03/27 00:31:54;;;;;;;1.13;1.13;;;11.90;99.90;;;;;;5167607;28;20041;-71
2022/03/27 00:34:28;;;;;;;1.95;1.90;;;11.80;99.90;;;;;;5194692;28;20055;-71
2022/03/27 00:37:03;;;;;;;2.33;2.22;;;11.80;99.90;;;;;;5185986;28;20050;-71
2022/03/27 00:39:37;;;;;;;1.95;1.85;;;11.80;99.90;;;;;;5185601;28;20031;-72
2022/03/27 00:42:09;;;;;;;2.40;2.28;;;11.80;99.90;;;;;;5207422;28;20066;-72
2022/03/27 00:44:47;;;;;;;2.45;2.35;;;11.70;99.90;;;;;;5204435;28;20518;-71
2022/03/27 00:47:22;;;;;;;3.30;3.03;;;11.70;99.90;;;;;;5162637;28;20068;-72
2022/03/27 00:49:53;;;;;;;2.70;2.60;;;11.60;99.90;;;;;;5207178;28;20034;-71
2022/03/27 00:52:30;;;;;;;3.85;3.42;;;11.70;99.90;;;;;;5215398;28;20027;-73
2022/03/27 00:55:02;;;;;;;2.35;2.15;;;11.70;99.90;;;;;;5190346;28;20438;-71
2022/03/27 00:57:33;;;;;;;0.88;0.88;;;11.60;99.90;;;;;;5183276;28;20037;-72
2022/03/27 01:00:20;;;;;;;2.47;2.17;;;11.50;99.90;;;;;;5182304;28;20041;-71
2022/03/27 01:02:55;;;;;;;2.13;2.03;;;11.40;99.90;;;;;;5182614;28;20013;-71
2022/03/27 01:05:34;;;;;;;1.50;1.50;;;11.30;99.90;;;;;;5178529;28;20055;-73
2022/03/27 01:08:15;;;;;;;2.28;2.17;;;11.20;99.90;;;;;;5193710;28;20025;-72
2022/03/27 01:10:52;;;;;;;2.33;2.13;;;11.30;99.90;;;;;;5216511;28;20017;-71
2022/03/27 01:13:26;;;;;;;2.05;1.95;;;11.30;99.90;;;;;;5219499;28;20025;-71
2022/03/27 01:16:00;;;;;;;1.98;1.88;;;11.10;99.90;;;;;;5215426;28;20048;-73
2022/03/27 01:18:36;;;;;;;1.38;1.38;;;11.00;99.90;;;;;;5183659;28;20242;-72
2022/03/27 01:21:13;;;;;;;1.45;1.45;;;10.80;99.90;;;;;;5199994;28;20021;-74
2022/03/27 01:23:45;;;;;;;2.95;2.83;;;10.70;99.90;;;;;;5187395;28;20018;-72
2022/03/27 01:26:18;;;;;;;1.55;1.50;;;10.60;99.90;;;;;;5202430;28;20029;-71
2022/03/27 01:28:52;;;;;;;1.55;1.50;;;10.50;99.90;;;;;;5175522;28;20033;-70
2022/03/27 01:31:24;;;;;;;0.90;0.90;;;10.50;99.90;;;;;;5179251;28;20522;-71
2022/03/27 01:34:04;;;;;;;1.92;1.83;;;10.60;99.90;;;;;;5205878;28;20036;-71
2022/03/27 01:36:37;;;;;;;1.42;1.42;;;10.60;99.90;;;;;;5198754;28;20037;-71
2022/03/27 01:39:13;;;;;;;1.98;1.88;;;10.50;99.90;;;;;;5201412;28;20030;-70
2022/03/27 01:41:47;;;;;;;2.47;1.98;;;10.50;99.90;;;;;;5182909;28;20025;-71
2022/03/27 01:44:20;;;;;;;2.55;2.35;;;10.30;99.90;;;;;;5182617;28;20021;-70
2022/03/27 01:46:52;;;;;;;2.55;2.40;;;10.30;99.90;;;;;;5186924;28;20029;-71
2022/03/27 01:49:27;;;;;;;1.02;1.00;;;10.20;99.90;;;;;;5178784;28;20041;-71
2022/03/27 01:52:01;;;;;;;2.35;2.25;;;10.30;99.90;;;;;;5173182;28;20040;-72
2022/03/27 01:54:35;;;;;;;2.45;1.20;;;10.50;99.90;;;;;;5204100;28;20198;-71
2022/03/27 01:57:16;;;;;;;1.00;1.00;;;10.50;99.90;;;;;;5195593;28;20030;-72
2022/03/27 01:59:48;;;;;;;2.20;2.10;;;10.50;99.90;;;;;;5196598;28;20037;-71
2022/03/27 02:02:30;;;;;;;2.45;2.30;;;10.60;99.90;;;;;;5190776;28;20025;-73
2022/03/27 02:05:04;;;;;;;1.58;1.48;;;10.70;99.90;;;;;;5164581;28;20577;-71
2022/03/27 02:07:37;;;;;;;1.77;1.58;;;10.90;99.90;;;;;;5199507;28;20039;-71
2022/03/27 02:10:09;;;;;;;1.77;1.70;;;11.00;99.90;;;;;;5188630;28;20423;-71
2022/03/27 02:12:41;;;;;;;0.82;0.82;;;11.20;99.90;;;;;;5167392;28;20571;-71
2022/03/27 02:15:15;;;;;;;1.73;1.63;;;11.20;99.90;;;;;;5195261;28;20258;-70
2022/03/27 02:17:50;;;;;;;1.70;1.60;;;11.30;99.90;;;;;;5199386;28;20563;-71
2022/03/27 02:20:24;;;;;;;;;;;11.20;99.90;;;;;;5179881;28;20540;-72
2022/03/27 02:22:58;;;;;;;1.20;1.20;;;11.10;99.90;;;;;;5218446;28;19916;-72
2022/03/27 02:25:30;;;;;;;1.65;1.55;;;11.10;99.90;;;;;;5224043;28;20016;-71
2022/03/27 02:28:03;;;;;;;2.15;2.05;;;11.10;99.90;;;;;;5181531;28;20022;-72
2022/03/27 02:30:40;;;;;;;1.92;1.83;;;11.20;99.90;;;;;;5180767;28;20488;-72
2022/03/27 02:33:12;;;;;;;0.73;0.73;;;11.10;99.90;;;;;;5189522;28;20033;-72
2022/03/27 02:35:46;;;;;;;3.55;1.35;;;11.00;99.90;;;;;;5194599;28;20027;-71
2022/03/27 02:38:38;;;;;;;1.33;1.33;;;10.80;99.90;;;;;;5205729;28;20027;-72
2022/03/27 02:41:15;;;;;;;1.20;1.20;;;10.70;99.90;;;;;;5194284;28;20025;-73
2022/03/27 02:43:49;;;;;;;1.50;1.50;;;10.60;99.90;;;;;;5192706;28;20044;-70
2022/03/27 02:46:23;;;;;;;1.47;1.47;;;10.50;99.90;;;;;;5182996;28;20039;-72
2022/03/27 02:49:05;;;;;;;;;;;10.30;99.90;;;;;;5207612;28;20717;-70
2022/03/27 02:51:45;;;;;;;1.85;1.75;;;10.00;99.90;;;;;;5191748;28;19923;-71
2022/03/27 02:54:21;;;;;;;1.23;1.17;;;9.90;99.90;;;;;;5178372;28;20033;-70
2022/03/27 02:56:56;;;;;;;2.00;1.90;;;9.80;99.90;;;;;;5189670;28;20025;-71
2022/03/27 02:59:28;;;;;;;1.48;1.38;;;9.80;99.90;;;;;;5199543;28;20018;-71
2022/03/27 03:02:03;;;;;;;0.73;0.73;;;9.80;99.90;;;;;;5196707;28;20112;-71
2022/03/27 03:04:35;;;;;;;2.17;2.08;;;9.70;99.90;;;;;;5176826;28;20289;-71
2022/03/27 03:07:09;;;;;;;0.85;0.85;;;9.60;99.90;;;;;;5184450;28;20039;-72
2022/03/27 03:09:45;;;;;;;1.38;1.38;;;9.40;99.90;;;;;;5201782;28;20037;-70
2022/03/27 03:12:19;;;;;;;1.00;1.00;;;9.30;99.90;;;;;;5239261;28;20036;-71
2022/03/27 03:14:58;;;;;;;0.90;0.90;;;9.20;99.90;;;;;;5227434;28;20036;-72
2022/03/27 03:17:32;;;;;;;1.20;1.20;;;9.10;99.90;;;;;;5189536;28;20104;-71
2022/03/27 03:20:06;;;;;;;1.00;1.00;;;9.00;99.90;;;;;;5181151;28;20326;-71
2022/03/27 03:22:40;;;;;;;2.05;1.95;;;9.10;99.90;;;;;;5166749;28;20071;-71
2022/03/27 03:25:15;;;;;;;2.45;2.35;;;9.00;99.90;;;;;;5152441;28;20041;-71
2022/03/27 03:27:51;;;;;;;0.88;0.88;;;9.00;99.90;;;;;;5203983;28;20046;-71
2022/03/27 03:30:24;;;;;;;1.88;1.77;;;9.00;99.90;;;;;;5200158;28;20013;-71
2022/03/27 03:32:57;;;;;;;2.38;2.17;;;9.10;99.90;;;;;;5197236;28;20040;-72
2022/03/27 03:35:36;;;;;;;1.00;1.00;;;9.10;99.90;;;;;;5191333;28;20460;-70
2022/03/27 03:38:10;;;;;;;2.17;2.08;;;9.10;99.90;;;;;;5195828;28;20342;-71
2022/03/27 03:40:43;;;;;;;2.95;2.75;;;9.00;99.90;;;;;;5182345;28;20009;-70
2022/03/27 03:43:15;;;;;;;0.98;0.98;;;9.00;99.90;;;;;;5182509;28;20052;-73
2022/03/27 03:45:49;;;;;;;1.33;1.33;;;8.90;99.90;;;;;;5179306;28;20029;-71
2022/03/27 03:48:23;;;;;;;1.42;1.40;;;8.90;99.90;;;;;;5210710;28;20035;-71
2022/03/27 03:50:55;;;;;;;1.95;1.85;;;8.90;99.90;;;;;;5210940;28;20570;-72
2022/03/27 03:53:28;;;;;;;1.35;1.35;;;8.80;99.90;;;;;;5194401;28;20044;-71
2022/03/27 03:56:01;;;;;;;1.38;1.38;;;8.90;99.90;;;;;;5184828;28;20045;-71
2022/03/27 03:58:33;;;;;;;3.58;3.38;;;8.90;99.90;;;;;;5188872;28;20044;-71
2022/03/27 04:01:07;;;;;;;1.52;1.42;;;8.90;99.90;;;;;;5199967;28;20041;-71
2022/03/27 04:03:43;;;;;;;1.20;1.20;;;8.80;99.90;;;;;;5195247;28;20559;-71
2022/03/27 04:06:15;;;;;;;1.00;1.00;;;8.60;99.90;;;;;;5170914;28;20054;-71
2022/03/27 04:08:48;;;;;;;1.80;1.70;;;8.50;99.90;;;;;;5193426;28;20121;-71
2022/03/27 04:11:22;;;;;;;2.33;2.22;;;8.40;99.90;;;;;;5208801;28;20032;-71
2022/03/27 04:14:00;;;;;;;2.92;2.80;;;8.30;99.90;;;;;;5200215;28;20030;-71
2022/03/27 04:16:32;;;;;;;1.08;1.08;;;8.20;99.90;;;;;;5190405;28;20373;-70
2022/03/27 04:19:03;;;;;;;0.70;0.70;;;8.10;99.90;;;;;;5181386;28;20045;-71
2022/03/27 04:21:39;;;;;;;2.47;2.35;;;8.10;99.90;;;;;;5205610;28;20025;-70
2022/03/27 04:24:16;;;;;;;1.92;1.83;;;8.00;99.90;;;;;;5199364;28;20391;-72
2022/03/27 04:26:50;;;;;;;2.08;1.98;;;8.00;99.90;;;;;;5190089;28;20024;-69
2022/03/27 04:29:29;;;;;;;0.80;0.80;;;7.90;99.90;;;;;;5190844;28;20040;-73
2022/03/27 04:32:02;;;;;;;0.73;0.73;;;7.80;99.90;;;;;;5182167;28;20067;-70
2022/03/27 04:34:38;;;;;;;2.05;1.48;;;7.80;99.90;;;;;;5199001;28;20019;-72
2022/03/27 04:37:10;;;;;;;0.95;0.95;;;7.70;99.90;;;;;;5208429;28;20033;-71
2022/03/27 04:39:47;;;;;;;1.30;1.25;;;7.70;99.90;;;;;;5178561;28;20029;-71
2022/03/27 04:42:26;;;;;;;1.00;1.00;;;7.60;99.90;;;;;;5175457;28;20031;-72
2022/03/27 04:45:02;;;;;;;1.30;1.30;;;7.50;99.90;;;;;;5209137;28;20017;-71
2022/03/27 04:47:34;;;;;;;2.45;2.25;;;7.50;99.90;;;;;;5181854;28;20039;-71
2022/03/27 04:50:11;;;;;;;2.97;2.75;;;7.40;99.90;;;;;;5204796;28;20032;-71
2022/03/27 04:52:44;;;;;;;0.55;0.55;;;7.40;99.90;;;;;;5178250;28;20025;-71
2022/03/27 04:55:16;;;;;;;1.65;1.52;;;7.30;99.90;;;;;;5206511;28;20033;-72
2022/03/27 04:57:48;;;;;;;1.23;1.23;;;7.20;99.90;;;;;;5195323;28;20048;-71
2022/03/27 05:00:25;;;;;;;0.70;0.70;;;7.10;99.90;;;;;;5197879;28;20491;-71
2022/03/27 05:03:02;;;;;;;1.40;1.33;;;7.10;99.90;;;;;;5191742;28;20052;-71
2022/03/27 05:05:35;;;;;;;1.10;1.10;;;7.10;99.90;;;;;;5187060;28;20046;-71
2022/03/27 05:08:08;;;;;;;1.63;1.63;;;7.00;99.90;;;;;;5202018;28;20029;-71
2022/03/27 05:10:39;;;;;;;1.30;1.30;;;7.00;99.90;;;;;;5187805;28;20212;-70
2022/03/27 05:13:17;;;;;;;1.55;1.45;;;7.00;99.90;;;;;;5187902;28;20028;-71
2022/03/27 05:15:54;;;;;;;0.88;0.88;;;7.00;99.90;;;;;;5187157;28;20219;-71
2022/03/27 05:18:25;;;;;;;1.70;1.63;;;7.00;99.90;;;;;;5195527;28;20465;-70
2022/03/27 05:21:00;;;;;;;0.88;0.88;;;7.00;99.90;;;;;;5208675;28;20020;-71
2022/03/27 05:23:32;;;;;;;1.00;1.00;;;7.00;99.90;;;;;;5199465;28;20032;-71
2022/03/27 05:26:12;;;;;;;2.45;2.28;;;7.00;99.90;;;;;;5178892;28;20029;-71
2022/03/27 05:28:48;;;;;;;1.50;1.40;;;7.00;99.90;;;;;;5190954;28;20592;-71
2022/03/27 05:31:21;;;;;;;1.48;1.48;;;7.10;99.90;;;;;;5162111;28;20037;-72
2022/03/27 05:33:52;;;;;;;1.52;1.50;;;7.10;99.90;;;;;;5195250;28;20112;-71
2022/03/27 05:36:24;;;;;;;0.98;0.98;;;7.20;99.90;;;;;;5220681;28;20017;-71
2022/03/27 05:38:59;;;;;;;1.65;1.60;;;7.40;99.90;;;;;;5197099;28;20490;-71
2022/03/27 05:41:33;;;;;;;0.65;0.65;;;7.50;99.90;;;;;;5185923;28;20029;-71
2022/03/27 05:44:05;;;;;;;;;;;7.50;99.90;;;;;;5200620;28;20036;-71
2022/03/27 05:46:43;;;;;;;1.00;1.00;;;7.50;99.90;;;;;;5197262;28;19951;-71
2022/03/27 05:49:17;;;;;;;0.75;0.75;;;7.60;99.90;;;;;;5199554;28;20013;-73
2022/03/27 05:51:50;;;;;;;1.42;1.42;;;7.70;99.90;;;;;;5211865;28;20033;-72
2022/03/27 05:54:25;;;;;;;1.27;1.27;;;7.80;99.90;;;;;;5209121;28;20044;-72
2022/03/27 05:56:59;;;;;;;;;;;7.90;99.90;;;;;;5199666;28;20032;-73
2022/03/27 05:59:34;;;;;;;0.88;0.88;;;8.10;99.90;;;;;;5184631;28;19928;-73
2022/03/27 06:02:08;;;;;;;1.02;1.02;;;8.10;99.90;;;;;;5215309;28;20028;-70
2022/03/27 06:04:42;;;;;;;0.82;0.82;;;8.20;99.90;;;;;;5154624;28;20546;-71
2022/03/27 06:07:22;;;;;;;1.20;1.20;;;8.30;99.90;;;;;;5186392;28;20052;-71
2022/03/27 06:09:54;;;;;;;0.88;0.88;;;8.40;99.90;;;;;;5198177;28;20041;-71
2022/03/27 06:12:30;;;;;;;0.75;0.75;;;8.40;99.90;;;;;;5213297;28;20021;-73
2022/03/27 06:15:08;;;;;;;1.00;1.00;;;8.50;99.90;;;;;;5181678;28;20033;-72
2022/03/27 06:17:48;;;;;;;1.10;1.10;;;8.60;99.90;;;;;;5209167;28;20029;-71
2022/03/27 06:20:27;;;;;;;1.02;1.02;;;8.60;99.90;;;;;;5184177;28;20035;-73
2022/03/27 06:23:01;;;;;;;3.88;1.88;;;8.70;99.90;;;;;;5197644;28;20040;-72
2022/03/27 06:25:38;;;;;;;1.05;1.05;;;8.80;99.90;;;;;;5184045;28;20045;-72
2022/03/27 06:28:12;;;;;;;0.70;0.70;;;8.90;99.90;;;;;;5170633;28;20043;-71
2022/03/27 06:30:46;;;;;;;1.73;1.63;;;9.10;99.90;;;;;;5189723;28;20021;-71
2022/03/27 06:33:18;;;;;;;2.40;2.13;;;9.20;99.90;;;;;;5199495;28;20496;-71
2022/03/27 06:35:55;;;;;;;0.95;0.95;;;9.40;99.90;;;;;;5193245;28;20025;-71
2022/03/27 06:38:26;;;;;;;1.67;1.58;;;9.30;99.90;;;;;;5200657;28;20025;-70
2022/03/27 06:41:06;;;;;;;1.38;1.30;;;9.40;99.90;;;;;;5205060;28;20041;-71
2022/03/27 06:43:40;;;;;;;2.33;2.22;;;9.30;99.90;;;;;;5193175;28;20024;-71
2022/03/27 06:46:16;;;;;;;1.10;1.10;;;9.40;99.90;;;;;;5197922;28;20028;-70
2022/03/27 06:48:51;;;;;;;0.98;0.98;;;9.60;99.90;;;;;;5201363;28;20025;-72
2022/03/27 06:51:27;;;;;;;1.05;1.05;;;9.80;99.90;;;;;;5201935;28;20029;-73
2022/03/27 06:54:00;;;;;;;1.00;1.00;;;10.10;99.90;;;;;;5194208;28;20517;-71
2022/03/27 06:56:42;;;;;;;0.82;0.82;;;10.30;99.90;;;;;;5218143;28;20043;-72
2022/03/27 06:59:15;;;;;;;1.08;1.08;;;10.50;99.90;;;;;;5199866;28;20025;-72
2022/03/27 07:04:47;;;;;;;0.70;0.70;;;10.90;99.90;;;;;;5184719;28;20180;-73
2022/03/27 07:07:21;;;;;;;0.77;0.77;;;10.90;99.90;;;;;;5206010;28;20056;-73
2022/03/27 07:09:52;;;;;;;2.38;1.95;;;11.00;99.90;;;;;;5198448;28;20054;-74
2022/03/27 07:12:26;;;;;;;0.70;0.70;;;11.20;99.90;;;;;;5185021;28;20034;-73
2022/03/27 07:14:58;;;;;;;1.50;1.42;;;11.50;99.90;;;;;;5204053;28;20024;-73
2022/03/27 07:17:32;;;;;;;0.80;0.80;;;11.60;99.90;;;;;;5192842;28;20033;-74
2022/03/27 07:20:08;;;;;;;0.93;0.93;;;11.70;99.90;;;;;;5204369;28;20029;-73
2022/03/27 07:22:43;;;;;;;0.75;0.75;;;11.60;99.90;;;;;;5209497;28;20348;-76
2022/03/27 07:25:14;;;;;;;1.17;1.17;;;11.60;99.90;;;;;;5197189;28;20047;-74
2022/03/27 07:27:51;;;;;;;1.48;1.40;;;11.60;99.90;;;;;;5199300;28;20021;-75
2022/03/27 07:30:25;;;;;;;1.23;1.17;;;11.60;99.90;;;;;;5168046;28;20045;-74
2022/03/27 07:33:05;;;;;;;1.00;1.00;;;11.80;99.90;;;;;;5206356;28;20045;-74
2022/03/27 07:35:45;;;;;;;1.00;1.00;;;11.40;99.90;;;;;;5195309;28;20534;-74
2022/03/27 07:38:19;;;;;;;0.77;0.77;;;11.60;99.90;;;;;;5178478;28;20028;-74
2022/03/27 07:40:55;;;;;;;1.25;1.23;;;11.60;99.90;;;;;;5198755;28;20044;-74
2022/03/27 07:43:27;;;;;;;0.70;0.70;;;11.70;99.90;;;;;;5185212;28;20082;-73
2022/03/27 07:45:59;;;;;;;1.80;1.45;;;11.70;99.90;;;;;;5199583;28;20032;-73
2022/03/27 07:48:36;;;;;;;0.68;0.68;;;11.50;99.90;;;;;;5201042;28;20039;-75
2022/03/27 07:51:08;;;;;;;0.93;0.90;;;11.20;99.90;;;;;;5198384;28;20246;-74
2022/03/27 07:53:39;;;;;;;0.85;0.82;;;11.40;99.90;;;;;;5220044;28;20029;-74
2022/03/27 07:56:14;;;;;;;1.00;1.00;;;11.70;99.90;;;;;;5193846;28;20021;-74
2022/03/27 07:58:48;;;;;;;;;;;12.10;99.90;;;;;;5212999;28;20483;-74
2022/03/27 08:01:22;;;;;;;0.88;0.88;;;12.20;99.90;;;;;;5194998;28;19947;-74
2022/03/27 08:03:56;;;;;;;1.17;1.17;;;12.50;99.90;;;;;;5201351;28;20029;-74
2022/03/27 08:06:36;;;;;;;1.25;1.25;;;12.60;99.90;;;;;;5186249;28;20049;-75
2022/03/27 08:09:08;;;;;;;1.23;1.23;;;13.00;99.90;;;;;;5198398;28;20033;-73
2022/03/27 08:11:45;;;;;;;1.13;1.13;;;12.70;99.90;;;;;;5199694;28;20032;-74
2022/03/27 08:14:19;;;;;;;1.38;1.38;;;12.30;99.90;;;;;;5200064;28;20045;-74
2022/03/27 08:16:50;;;;;;;1.17;1.17;;;12.50;99.90;;;;;;5221513;28;20614;-74
2022/03/27 08:19:25;;;;;;;0.63;0.57;;;12.80;99.90;;;;;;5183095;28;20033;-75
2022/03/27 08:21:59;;;;;;;;;;;13.00;99.90;;;;;;5184772;28;20034;-75
2022/03/27 08:24:33;;;;;;;0.95;0.95;;;13.10;99.90;;;;;;5175155;28;19913;-74
2022/03/27 08:27:07;;;;;;;0.68;0.68;;;13.20;99.90;;;;;;5195558;28;20052;-74
2022/03/27 08:29:47;;;;;;;1.25;0.90;;;13.60;99.90;;;;;;5203944;28;20032;-74
2022/03/27 08:32:23;;;;;;;0.80;0.80;;;14.00;99.90;;;;;;5195588;28;20633;-75
2022/03/27 08:34:57;;;;;;;1.25;1.25;;;13.40;99.90;;;;;;5211228;28;20025;-74
2022/03/27 08:37:31;;;;;;;0.95;0.95;;;13.30;99.90;;;;;;5177822;28;20048;-73
2022/03/27 08:40:06;;;;;;;0.70;0.70;;;12.50;99.90;;;;;;5214695;28;20035;-74
2022/03/27 08:42:38;;;;;;;0.77;0.77;;;12.80;99.90;;;;;;5192958;28;20029;-73
2022/03/27 08:45:13;;;;;;;1.15;1.05;;;13.50;99.90;;;;;;5180454;28;20034;-72
2022/03/27 08:47:51;;;;;;;1.67;1.58;;;14.00;99.90;;;;;;5182071;28;20034;-72
2022/03/27 08:50:44;;;;;;;0.70;0.70;;;14.00;99.90;;;;;;5218966;28;20039;-71
2022/03/27 08:53:29;;;;;;;0.63;0.63;;;14.10;99.90;;;;;;5194367;28;20016;-73
2022/03/27 08:56:12;;;;;;;2.60;2.40;;;14.50;99.90;;;;;;5199136;28;20024;-74
2022/03/27 08:58:43;;;;;;;0.60;0.60;;;13.50;99.90;;;;;;5176236;28;20049;-74
2022/03/27 09:01:17;;;;;;;0.80;0.80;;;13.60;99.90;;;;;;5191147;28;20044;-73
2022/03/27 09:03:49;;;;;;;7.18;1.52;;;13.90;99.90;;;;;;5188265;28;20327;-73
2022/03/27 09:06:22;;;;;;;1.15;1.15;;;14.60;99.90;;;;;;5153680;28;20052;-74
2022/03/27 09:08:56;;;;;;;1.55;1.45;;;15.20;99.90;;;;;;5187006;28;20243;-73
2022/03/27 09:11:32;;;;;;;1.17;0.95;;;15.30;99.90;;;;;;5209234;28;20235;-74
2022/03/27 09:14:12;;;;;;;0.75;0.75;;;15.20;99.90;;;;;;5212402;28;20043;-73
2022/03/27 09:17:06;;;;;;;0.88;0.88;;;15.10;99.90;;;;;;5208687;28;20345;-73
2022/03/27 09:19:44;;;;;;;0.47;0.47;;;16.10;99.90;;;;;;5177000;28;20017;-75
2022/03/27 09:22:29;;;;;;;3.83;2.00;;;16.20;99.90;;;;;;5186882;28;20487;-73
2022/03/27 09:25:08;;;;;;;1.60;1.60;;;16.00;99.90;;;;;;5197809;28;20036;-74
2022/03/27 09:27:49;;;;;;;0.57;0.57;;;16.00;99.90;;;;;;5210835;28;20042;-73
2022/03/27 09:30:20;;;;;;;1.58;1.48;;;15.90;99.90;;;;;;5199284;28;20056;-73
2022/03/27 09:33:02;;;;;;;1.35;1.25;;;16.00;99.90;;;;;;5191497;28;20025;-75
2022/03/27 09:35:35;;;;;;;2.47;1.42;;;15.90;99.90;;;;;;5174690;28;20063;-74
2022/03/27 09:38:19;;;;;;;1.98;1.38;;;15.70;99.90;;;;;;5200863;28;20223;-72
2022/03/27 09:40:50;;;;;;;0.83;0.83;;;16.00;99.90;;;;;;5181544;28;20049;-73
2022/03/27 09:43:22;;;;;;;0.85;0.85;;;15.70;99.90;;;;;;5202397;28;20043;-72
2022/03/27 09:46:00;;;;;;;0.40;0.40;;;15.80;99.90;;;;;;5174029;28;20041;-71
2022/03/27 09:48:57;;;;;;;0.65;0.65;;;15.50;99.90;;;;;;5178450;28;20025;-72
2022/03/27 09:51:29;;;;;;;1.08;1.08;;;15.70;99.90;;;;;;5200121;28;20033;-72
2022/03/27 09:54:01;;;;;;;0.82;0.82;;;15.60;99.90;;;;;;5202819;28;20465;-71
2022/03/27 09:56:34;;;;;;;1.00;0.95;;;15.70;99.90;;;;;;5198509;28;20487;-71
2022/03/27 09:59:29;;;;;;;0.50;0.50;;;15.80;99.90;;;;;;5183918;28;20067;-71
2022/03/27 10:02:29;;;;;;;0.82;0.82;;;15.30;99.90;;;;;;5209603;28;20052;-73
2022/03/27 10:05:07;;;;;;;1.05;1.05;;;16.00;99.90;;;;;;5168795;28;20423;-71
2022/03/27 10:07:44;;;;;;;1.08;1.08;;;16.20;99.90;;;;;;5204108;28;20218;-71
2022/03/27 10:10:21;;;;;;;1.20;1.10;;;16.10;99.90;;;;;;5201555;28;20366;-71
2022/03/27 10:12:58;;;;;;;0.95;0.95;;;15.90;99.90;;;;;;5166650;28;20028;-72
2022/03/27 10:15:34;;;;;;;0.70;0.70;;;15.50;99.90;;;;;;5217540;28;20017;-72
2022/03/27 10:18:20;;;;;;;0.85;0.85;;;16.20;99.90;;;;;;5184774;28;20048;-72
2022/03/27 10:20:59;;;;;;;0.60;0.60;;;16.50;99.90;;;;;;5175563;28;20045;-72
2022/03/27 10:23:34;;;;;;;1.48;1.48;;;17.00;99.90;;;;;;5204415;28;20027;-72
2022/03/27 10:26:16;;;;;;;1.83;1.75;;;17.60;99.90;;;;;;5204051;28;20574;-73
2022/03/27 10:28:51;;;;;;;0.60;0.60;;;17.80;99.90;;;;;;5210214;28;20037;-72
2022/03/27 10:31:24;;;;;;;0.77;0.77;;;17.50;99.90;;;;;;5200745;28;20033;-73
2022/03/27 10:34:02;;;;;;;0.63;0.63;;;16.30;99.90;;;;;;5201010;28;20303;-72
2022/03/27 10:37:35;;;;;;;0.77;0.77;;;16.80;99.90;;;;;;5190631;28;20270;-73
2022/03/27 10:40:29;;;;;;;0.73;0.73;;;16.90;99.90;;;;;;5173254;28;20465;-72
2022/03/27 10:43:34;;;;;;;0.70;0.70;;;17.60;99.90;;;;;;5195980;28;20274;-72
2022/03/27 10:46:27;;;;;;;0.80;0.80;;;17.20;99.90;;;;;;5182674;28;20036;-72
2022/03/27 10:49:17;;;;;;;0.73;0.73;;;18.20;99.90;;;;;;5186009;28;20041;-72
2022/03/27 10:51:54;;;;;;;0.30;0.30;;;19.30;99.90;;;;;;5195387;28;20033;-71
2022/03/27 10:54:28;;;;;;;0.45;0.45;;;19.30;99.90;;;;;;5182394;28;20516;-73
2022/03/27 10:57:02;;;;;;;0.60;0.60;;;20.10;99.90;;;;;;5204371;28;20041;-72
2022/03/27 10:59:42;;;;;;;;;;;22.00;99.90;;;;;;5203104;28;20058;-72
2022/03/27 11:02:56;;;;;;;1.35;1.33;;;22.90;99.90;;;;;;5198848;28;20440;-72
2022/03/27 11:05:36;;;;;;;0.55;0.55;;;23.30;99.90;;;;;;5169423;28;20050;-73
2022/03/27 11:08:19;;;;;;;0.75;0.75;;;23.70;99.90;;;;;;5172668;28;20045;-73
2022/03/27 11:11:00;;;;;;;1.63;1.52;;;23.00;99.90;;;;;;5185666;28;20029;-73
2022/03/27 11:13:31;;;;;;;1.02;1.02;;;23.20;99.90;;;;;;5190657;28;20068;-72
2022/03/27 11:16:12;;;;;;;1.67;1.25;;;23.00;99.90;;;;;;5215130;28;20039;-72
2022/03/27 11:18:51;;;;;;;0.90;0.90;;;21.20;99.90;;;;;;5179302;28;20025;-72
2022/03/27 11:21:29;;;;;;;1.13;1.13;;;21.30;99.90;;;;;;5180992;28;20589;-73
2022/03/27 11:24:03;;;;;;;0.77;0.77;;;20.90;99.90;;;;;;5206717;28;20023;-74
2022/03/27 11:26:37;;;;;;;;;;;22.50;99.90;;;;;;5188682;28;20033;-73
2022/03/27 11:29:24;;;;;;;2.03;1.88;;;23.70;99.90;;;;;;5199090;28;20245;-74
2022/03/27 11:32:10;;;;;;;1.08;1.08;;;26.00;99.90;;;;;;5175290;28;20037;-72
2022/03/27 11:34:43;;;;;;;0.95;0.95;;;24.90;99.90;;;;;;5182079;28;20427;-73
2022/03/27 11:37:25;;;;;;;1.15;1.15;;;23.90;99.90;;;;;;5188541;28;20043;-73
2022/03/27 11:39:59;;;;;;;0.40;0.40;;;24.50;99.90;;;;;;5189005;28;20041;-73
2022/03/27 11:42:35;;;;;;;;;;;25.30;99.90;;;;;;5210524;28;20226;-74
2022/03/27 11:45:18;;;;;;;1.45;1.35;;;26.40;99.90;;;;;;5213377;28;19923;-73
2022/03/27 11:47:55;;;;;;;0.57;0.57;;;26.60;99.90;;;;;;5189807;28;20036;-74
2022/03/27 11:50:32;;;;;;;1.02;1.02;;;25.40;99.90;;;;;;5191117;28;20357;-73
2022/03/27 11:53:04;;;;;;;1.40;1.30;;;23.00;99.90;;;;;;5189097;28;20040;-73
2022/03/27 11:55:39;;;;;;;1.77;1.67;;;23.80;99.90;;;;;;5210621;28;20029;-73
2022/03/27 11:58:21;;;;;;;0.75;0.75;;;23.40;99.90;;;;;;5193467;28;20569;-73
2022/03/27 12:01:08;;;;;;;0.70;0.70;;;23.40;99.90;;;;;;5197859;28;20505;-72
2022/03/27 12:03:40;;;;;;;0.70;0.70;;;24.20;99.90;;;;;;5185697;28;20021;-73
2022/03/27 12:06:14;;;;;;;0.90;0.90;;;24.00;99.90;;;;;;5207407;28;20033;-73
2022/03/27 12:08:49;;;;;;;1.40;1.30;;;25.40;99.90;;;;;;5210348;28;20024;-73
2022/03/27 12:11:23;;;;;;;1.00;0.95;;;25.40;99.90;;;;;;5176747;28;20044;-72
2022/03/27 12:13:56;;;;;;;0.60;0.60;;;24.90;99.90;;;;;;5198295;28;20044;-73
2022/03/27 12:16:36;;;;;;;0.38;0.38;;;23.60;99.90;;;;;;5200850;28;20036;-73
2022/03/27 12:19:13;;;;;;;1.85;1.42;;;24.00;99.90;;;;;;5215749;28;20033;-72
2022/03/27 12:21:48;;;;;;;0.85;0.68;;;25.00;99.90;;;;;;5210814;28;20557;-73
2022/03/27 12:24:39;;;;;;;1.27;1.17;;;26.50;99.90;;;;;;5200959;28;20593;-72
2022/03/27 12:30:19;;;;;;;1.10;1.10;;;28.00;98.40;;;;;;5219949;28;20028;-74
2022/03/27 12:32:56;;;;;;;;;;;25.90;99.00;;;;;;5203541;28;20454;-74
2022/03/27 12:35:35;;;;;;;0.70;0.70;;;25.20;99.70;;;;;;5205319;28;20378;-73
2022/03/27 12:38:06;;;;;;;0.95;0.95;;;26.30;99.90;;;;;;5211809;28;20056;-74
2022/03/27 12:40:48;;;;;;;1.40;1.40;;;27.50;97.90;;;;;;5215528;28;20049;-74
2022/03/27 12:43:24;;;;;;;0.70;0.68;;;28.00;97.60;;;;;;5179601;28;20028;-73
2022/03/27 12:46:02;;;;;;;1.17;1.10;;;27.00;97.10;;;;;;5190137;28;20038;-74
2022/03/27 12:48:34;;;;;;;0.98;0.98;;;25.10;98.60;;;;;;5197004;28;20031;-73
2022/03/27 12:51:15;;;;;;;0.80;0.80;;;24.50;99.30;;;;;;5187321;28;20264;-73
2022/03/27 12:54:01;;;;;;;0.80;0.80;;;25.10;98.90;;;;;;5201453;28;20017;-74
2022/03/27 12:56:33;;;;;;;1.35;1.25;;;26.40;98.00;;;;;;5183589;28;20041;-73
2022/03/27 12:59:20;;;;;;;0.50;0.50;;;27.60;96.70;;;;;;5217838;28;20021;-74
2022/03/27 13:01:52;;;;;;;0.80;0.80;;;26.70;97.10;;;;;;5198671;28;20039;-74
2022/03/27 13:04:28;;;;;;;0.88;0.88;;;23.60;98.70;;;;;;5182560;28;20041;-74
2022/03/27 13:07:03;;;;;;;0.55;0.55;;;23.30;99.80;;;;;;5183888;28;20013;-74
2022/03/27 13:09:35;;;;;;;0.40;0.40;;;24.70;98.90;;;;;;5187408;28;20055;-74
2022/03/27 13:12:13;;;;;;;0.52;0.52;;;25.10;98.40;;;;;;5213981;28;20033;-74
2022/03/27 13:14:47;;;;;;;0.20;0.20;;;25.50;98.10;;;;;;5212960;28;20033;-74
2022/03/27 13:17:22;;;;;;;4.70;0.85;;;24.60;98.30;;;;;;5186342;28;20025;-74
2022/03/27 13:19:53;;;;;;;0.57;0.55;;;22.60;99.80;;;;;;5217637;28;20041;-74
2022/03/27 13:22:28;;;;;;;1.00;0.68;;;21.80;99.90;;;;;;5207107;28;20021;-73
2022/03/27 13:24:59;;;;;;;0.45;0.45;;;22.90;99.90;;;;;;5211398;28;20388;-74
2022/03/27 13:27:34;;;;;;;0.50;0.50;;;24.10;99.20;;;;;;5229148;28;20433;-74
2022/03/27 13:30:08;;;;;;;0.45;0.45;;;24.20;99.10;;;;;;5222315;28;20021;-74
2022/03/27 13:32:44;;;;;;;1.50;1.17;;;24.80;98.70;;;;;;5189017;28;20453;-73
2022/03/27 13:35:17;;;;;;;0.28;0.28;;;24.10;98.80;;;;;;5218959;28;20025;-75
2022/03/27 13:37:51;;;;;;;1.33;1.25;;;24.90;98.40;;;;;;5202923;28;20409;-73
2022/03/27 13:42:57;;;;;;;0.52;0.52;;;24.20;98.80;;;;;;5217804;28;20041;-74
2022/03/27 13:43:19;;;;;;;0.70;0.70;;;23.40;99.50;;;;;;5207901;28;20042;-74
2022/03/27 13:45:53;;;;;;;1.00;1.00;;;23.90;99.00;;;;;;5223896;28;20016;-73
2022/03/27 13:48:25;;;;;;;0.55;0.55;;;24.30;98.40;;;;;;5205509;28;20429;-75